sensor_id;sensor_type;location;lat;lon;timestamp;pressure;altitude;pressure_sealevel;temperature;humidity
14902;BME280;7542;49.078;9.194;2024-01-06T00:00:09;97374.28;;;31.16;29.77
14902;BME280;7542;49.078;9.194;2024-01-06T00:01:14;97374.88;;;31.22;29.48
14902;BME280;7542;49.078;9.194;2024-01-06T00:02:17;97372.63;;;31.24;29.52
14902;BME280;7542;49.078;9.194;2024-01-06T00:03:19;97369.59;;;31.26;29.59
14902;BME280;7542;49.078;9.194;2024-01-06T00:04:21;97379.44;;;31.30;29.35
14902;BME280;7542;49.078;9.194;2024-01-06T00:05:23;97368.25;;;31.32;29.54
14902;BME280;7542;49.078;9.194;2024-01-06T00:06:25;97374.59;;;31.36;29.63
14902;BME280;7542;49.078;9.194;2024-01-06T00:07:27;97370.75;;;31.37;29.46
14902;BME280;7542;49.078;9.194;2024-01-06T00:08:29;97374.38;;;31.41;29.61
14902;BME280;7542;49.078;9.194;2024-01-06T00:09:31;97379.13;;;31.44;29.43
14902;BME280;7542;49.078;9.194;2024-01-06T00:10:33;97382.28;;;31.46;29.63
14902;BME280;7542;49.078;9.194;2024-01-06T00:11:35;97383.06;;;31.47;29.73
14902;BME280;7542;49.078;9.194;2024-01-06T00:12:37;97378.59;;;31.51;29.63
14902;BME280;7542;49.078;9.194;2024-01-06T00:13:39;97382.19;;;31.55;29.50
14902;BME280;7542;49.078;9.194;2024-01-06T00:14:41;97377.22;;;31.57;29.61
14902;BME280;7542;49.078;9.194;2024-01-06T00:15:47;97374.19;;;31.58;29.77
14902;BME280;7542;49.078;9.194;2024-01-06T00:16:49;97381.31;;;31.63;29.83
14902;BME280;7542;49.078;9.194;2024-01-06T00:17:51;97373.63;;;31.65;29.83
14902;BME280;7542;49.078;9.194;2024-01-06T00:18:53;97376.78;;;31.67;29.80
14902;BME280;7542;49.078;9.194;2024-01-06T00:19:57;97376.44;;;31.68;29.83
14902;BME280;7542;49.078;9.194;2024-01-06T00:21:02;97372.75;;;31.73;29.70
14902;BME280;7542;49.078;9.194;2024-01-06T00:22:04;97377.50;;;31.76;29.84
14902;BME280;7542;49.078;9.194;2024-01-06T00:23:06;97379.09;;;31.77;29.79
14902;BME280;7542;49.078;9.194;2024-01-06T00:24:08;97377.63;;;31.80;29.99
14902;BME280;7542;49.078;9.194;2024-01-06T00:25:10;97378.09;;;31.82;29.93
14902;BME280;7542;49.078;9.194;2024-01-06T00:26:12;97379.00;;;31.86;30.02
14902;BME280;7542;49.078;9.194;2024-01-06T00:27:14;97377.88;;;31.87;30.10
14902;BME280;7542;49.078;9.194;2024-01-06T00:28:18;97374.81;;;31.88;30.04
14902;BME280;7542;49.078;9.194;2024-01-06T00:29:20;97371.75;;;31.90;30.63
14902;BME280;7542;49.078;9.194;2024-01-06T00:30:22;97380.81;;;31.94;30.25
14902;BME280;7542;49.078;9.194;2024-01-06T00:31:24;97377.41;;;31.97;30.20
14902;BME280;7542;49.078;9.194;2024-01-06T00:32:26;97377.06;;;31.98;30.51
14902;BME280;7542;49.078;9.194;2024-01-06T00:33:28;97374.81;;;32.00;30.08
14902;BME280;7542;49.078;9.194;2024-01-06T00:34:30;97375.28;;;32.03;30.52
14902;BME280;7542;49.078;9.194;2024-01-06T00:35:32;97380.81;;;32.06;30.16
14902;BME280;7542;49.078;9.194;2024-01-06T00:36:34;97381.25;;;32.08;30.53
14902;BME280;7542;49.078;9.194;2024-01-06T00:37:36;97383.63;;;32.10;30.35
14902;BME280;7542;49.078;9.194;2024-01-06T00:38:38;97379.78;;;32.11;30.14
14902;BME280;7542;49.078;9.194;2024-01-06T00:39:40;97377.84;;;32.11;30.34
14902;BME280;7542;49.078;9.194;2024-01-06T00:40:42;97376.41;;;32.14;30.35
14902;BME280;7542;49.078;9.194;2024-01-06T00:41:44;97375.72;;;32.17;30.19
14902;BME280;7542;49.078;9.194;2024-01-06T00:42:46;97381.59;;;32.19;30.55
14902;BME280;7542;49.078;9.194;2024-01-06T00:43:48;97379.31;;;32.21;30.50
14902;BME280;7542;49.078;9.194;2024-01-06T00:44:50;97378.19;;;32.22;30.62
14902;BME280;7542;49.078;9.194;2024-01-06T00:45:52;97385.19;;;32.23;30.50
14902;BME280;7542;49.078;9.194;2024-01-06T00:46:54;97389.16;;;32.25;30.35
14902;BME280;7542;49.078;9.194;2024-01-06T00:47:56;97387.38;;;32.29;30.52
14902;BME280;7542;49.078;9.194;2024-01-06T00:48:58;97391.19;;;32.28;30.45
14902;BME280;7542;49.078;9.194;2024-01-06T00:50:00;97385.44;;;32.30;30.41
14902;BME280;7542;49.078;9.194;2024-01-06T00:51:03;97387.03;;;32.31;30.37
14902;BME280;7542;49.078;9.194;2024-01-06T00:52:05;97389.84;;;32.35;30.34
14902;BME280;7542;49.078;9.194;2024-01-06T00:53:08;97389.06;;;32.34;30.02
14902;BME280;7542;49.078;9.194;2024-01-06T00:54:10;97390.31;;;32.37;30.22
14902;BME280;7542;49.078;9.194;2024-01-06T00:55:12;97390.75;;;32.39;30.59
14902;BME280;7542;49.078;9.194;2024-01-06T00:56:14;97397.41;;;32.41;30.35
14902;BME280;7542;49.078;9.194;2024-01-06T00:57:16;97390.06;;;32.42;30.39
14902;BME280;7542;49.078;9.194;2024-01-06T00:58:19;97392.44;;;32.43;30.32
14902;BME280;7542;49.078;9.194;2024-01-06T00:59:21;97393.69;;;32.46;30.10
14902;BME280;7542;49.078;9.194;2024-01-06T01:00:23;97391.78;;;32.46;30.13
14902;BME280;7542;49.078;9.194;2024-01-06T01:01:25;97388.38;;;32.49;30.57
14902;BME280;7542;49.078;9.194;2024-01-06T01:02:27;97400.81;;;32.50;30.25
14902;BME280;7542;49.078;9.194;2024-01-06T01:03:29;97398.53;;;32.52;30.16
14902;BME280;7542;49.078;9.194;2024-01-06T01:04:31;97410.63;;;32.55;30.39
14902;BME280;7542;49.078;9.194;2024-01-06T01:05:33;97404.41;;;32.54;30.21
14902;BME280;7542;49.078;9.194;2024-01-06T01:06:37;97409.16;;;32.57;30.38
14902;BME280;7542;49.078;9.194;2024-01-06T01:07:39;97407.59;;;32.56;30.28
14902;BME280;7542;49.078;9.194;2024-01-06T01:08:42;97409.97;;;32.58;29.93
14902;BME280;7542;49.078;9.194;2024-01-06T01:09:44;97419.34;;;32.61;29.95
14902;BME280;7542;49.078;9.194;2024-01-06T01:10:46;97426.00;;;32.63;30.27
14902;BME280;7542;49.078;9.194;2024-01-06T01:11:48;97423.72;;;32.65;29.84
14902;BME280;7542;49.078;9.194;2024-01-06T01:12:50;97432.31;;;32.67;30.08
14902;BME280;7542;49.078;9.194;2024-01-06T01:13:52;97422.28;;;32.68;30.13
14902;BME280;7542;49.078;9.194;2024-01-06T01:14:54;97430.41;;;32.68;30.16
14902;BME280;7542;49.078;9.194;2024-01-06T01:15:56;97432.44;;;32.71;29.67
14902;BME280;7542;49.078;9.194;2024-01-06T01:16:58;97429.38;;;32.72;29.65
14902;BME280;7542;49.078;9.194;2024-01-06T01:18:00;97436.94;;;32.67;29.42
14902;BME280;7542;49.078;9.194;2024-01-06T01:19:02;97438.00;;;32.62;29.69
14902;BME280;7542;49.078;9.194;2024-01-06T01:20:05;97436.63;;;32.56;28.97
14902;BME280;7542;49.078;9.194;2024-01-06T01:21:07;97437.44;;;32.44;29.29
14902;BME280;7542;49.078;9.194;2024-01-06T01:22:09;97438.81;;;32.38;29.37
14902;BME280;7542;49.078;9.194;2024-01-06T01:23:11;97439.72;;;32.30;29.29
14902;BME280;7542;49.078;9.194;2024-01-06T01:24:13;97436.63;;;32.19;29.29
14902;BME280;7542;49.078;9.194;2024-01-06T01:25:15;97441.03;;;32.12;29.17
14902;BME280;7542;49.078;9.194;2024-01-06T01:26:17;97442.41;;;32.06;29.30
14902;BME280;7542;49.078;9.194;2024-01-06T01:27:19;97433.13;;;31.94;29.38
14902;BME280;7542;49.078;9.194;2024-01-06T01:28:21;97439.44;;;31.86;29.44
14902;BME280;7542;49.078;9.194;2024-01-06T01:29:23;97435.34;;;31.80;29.23
14902;BME280;7542;49.078;9.194;2024-01-06T01:30:25;97446.72;;;31.73;29.20
14902;BME280;7542;49.078;9.194;2024-01-06T01:31:27;97442.97;;;31.66;29.06
14902;BME280;7542;49.078;9.194;2024-01-06T01:32:29;97454.69;;;31.58;29.21
14902;BME280;7542;49.078;9.194;2024-01-06T01:33:31;97450.16;;;31.50;29.22
14902;BME280;7542;49.078;9.194;2024-01-06T01:34:34;97458.47;;;31.44;29.21
14902;BME280;7542;49.078;9.194;2024-01-06T01:35:36;97455.06;;;31.35;29.72
14902;BME280;7542;49.078;9.194;2024-01-06T01:36:38;97442.88;;;31.29;29.30
14902;BME280;7542;49.078;9.194;2024-01-06T01:37:40;97452.31;;;31.23;29.25
14902;BME280;7542;49.078;9.194;2024-01-06T01:38:42;97450.13;;;31.16;29.16
14902;BME280;7542;49.078;9.194;2024-01-06T01:39:44;97449.50;;;31.11;29.24
14902;BME280;7542;49.078;9.194;2024-01-06T01:40:46;97448.16;;;31.05;29.54
14902;BME280;7542;49.078;9.194;2024-01-06T01:41:48;97444.50;;;31.01;29.65
14902;BME280;7542;49.078;9.194;2024-01-06T01:42:49;97439.16;;;30.92;29.77
14902;BME280;7542;49.078;9.194;2024-01-06T01:43:51;97455.25;;;30.88;29.50
14902;BME280;7542;49.078;9.194;2024-01-06T01:45:00;97445.75;;;30.82;29.56
14902;BME280;7542;49.078;9.194;2024-01-06T01:46:02;97452.50;;;30.76;29.58
14902;BME280;7542;49.078;9.194;2024-01-06T01:47:05;97456.16;;;30.72;29.92
14902;BME280;7542;49.078;9.194;2024-01-06T01:48:07;97457.16;;;30.67;30.20
14902;BME280;7542;49.078;9.194;2024-01-06T01:49:09;97457.63;;;30.60;29.59
14902;BME280;7542;49.078;9.194;2024-01-06T01:50:13;97459.09;;;30.58;29.90
14902;BME280;7542;49.078;9.194;2024-01-06T01:51:17;97462.34;;;30.51;29.87
14902;BME280;7542;49.078;9.194;2024-01-06T01:52:20;97462.97;;;30.48;30.00
14902;BME280;7542;49.078;9.194;2024-01-06T01:53:23;97454.72;;;30.45;30.09
14902;BME280;7542;49.078;9.194;2024-01-06T01:54:26;97464.13;;;30.39;29.88
14902;BME280;7542;49.078;9.194;2024-01-06T01:55:29;97459.38;;;30.36;29.72
14902;BME280;7542;49.078;9.194;2024-01-06T01:56:32;97458.78;;;30.30;30.32
14902;BME280;7542;49.078;9.194;2024-01-06T01:57:38;97458.28;;;30.28;30.36
14902;BME280;7542;49.078;9.194;2024-01-06T01:58:41;97461.53;;;30.21;30.08
14902;BME280;7542;49.078;9.194;2024-01-06T01:59:43;97459.47;;;30.18;29.98
14902;BME280;7542;49.078;9.194;2024-01-06T02:00:45;97462.00;;;30.15;30.34
14902;BME280;7542;49.078;9.194;2024-01-06T02:01:47;97463.78;;;30.11;30.45
14902;BME280;7542;49.078;9.194;2024-01-06T02:02:50;97456.63;;;30.06;29.83
14902;BME280;7542;49.078;9.194;2024-01-06T02:03:52;97458.84;;;30.04;29.93
14902;BME280;7542;49.078;9.194;2024-01-06T02:04:56;97464.91;;;30.01;30.17
14902;BME280;7542;49.078;9.194;2024-01-06T02:05:58;97457.44;;;29.98;29.98
14902;BME280;7542;49.078;9.194;2024-01-06T02:07:00;97456.50;;;29.94;30.56
14902;BME280;7542;49.078;9.194;2024-01-06T02:08:02;97457.16;;;29.91;30.00
14902;BME280;7542;49.078;9.194;2024-01-06T02:09:04;97458.91;;;29.87;30.10
14902;BME280;7542;49.078;9.194;2024-01-06T02:10:08;97460.34;;;29.84;30.57
14902;BME280;7542;49.078;9.194;2024-01-06T02:11:10;97461.00;;;29.81;30.25
14902;BME280;7542;49.078;9.194;2024-01-06T02:12:12;97458.94;;;29.78;30.22
14902;BME280;7542;49.078;9.194;2024-01-06T02:13:14;97470.06;;;29.77;30.50
14902;BME280;7542;49.078;9.194;2024-01-06T02:14:16;97460.69;;;29.74;30.64
14902;BME280;7542;49.078;9.194;2024-01-06T02:15:19;97464.03;;;29.71;30.10
14902;BME280;7542;49.078;9.194;2024-01-06T02:16:21;97470.56;;;29.70;30.49
14902;BME280;7542;49.078;9.194;2024-01-06T02:17:23;97461.84;;;29.64;30.69
14902;BME280;7542;49.078;9.194;2024-01-06T02:18:25;97469.44;;;29.62;30.77
14902;BME280;7542;49.078;9.194;2024-01-06T02:19:27;97465.03;;;29.58;30.48
14902;BME280;7542;49.078;9.194;2024-01-06T02:20:32;97464.69;;;29.59;30.33
14902;BME280;7542;49.078;9.194;2024-01-06T02:21:40;97466.94;;;29.57;30.82
14902;BME280;7542;49.078;9.194;2024-01-06T02:22:43;97464.88;;;29.54;30.43
14902;BME280;7542;49.078;9.194;2024-01-06T02:23:45;97465.22;;;29.53;30.72
14902;BME280;7542;49.078;9.194;2024-01-06T02:24:47;97458.84;;;29.49;30.34
14902;BME280;7542;49.078;9.194;2024-01-06T02:25:50;97457.25;;;29.48;30.44
14902;BME280;7542;49.078;9.194;2024-01-06T02:26:51;97462.94;;;29.46;30.91
14902;BME280;7542;49.078;9.194;2024-01-06T02:27:53;97470.91;;;29.42;30.37
14902;BME280;7542;49.078;9.194;2024-01-06T02:28:55;97471.19;;;29.41;30.44
14902;BME280;7542;49.078;9.194;2024-01-06T02:29:57;97464.53;;;29.38;30.44
14902;BME280;7542;49.078;9.194;2024-01-06T02:30:59;97466.78;;;29.36;30.31
14902;BME280;7542;49.078;9.194;2024-01-06T02:32:01;97477.09;;;29.34;30.93
14902;BME280;7542;49.078;9.194;2024-01-06T02:33:03;97472.03;;;29.33;30.84
14902;BME280;7542;49.078;9.194;2024-01-06T02:34:05;97479.66;;;29.31;30.59
14902;BME280;7542;49.078;9.194;2024-01-06T02:35:08;97478.03;;;29.30;31.13
14902;BME280;7542;49.078;9.194;2024-01-06T02:36:10;97477.56;;;29.28;30.65
14902;BME280;7542;49.078;9.194;2024-01-06T02:37:11;97481.72;;;29.25;31.01
14902;BME280;7542;49.078;9.194;2024-01-06T02:38:13;97482.50;;;29.26;31.06
14902;BME280;7542;49.078;9.194;2024-01-06T02:39:16;97484.72;;;29.24;30.56
14902;BME280;7542;49.078;9.194;2024-01-06T02:40:17;97488.06;;;29.21;31.04
14902;BME280;7542;49.078;9.194;2024-01-06T02:41:19;97487.28;;;29.20;30.93
14902;BME280;7542;49.078;9.194;2024-01-06T02:42:21;97486.00;;;29.17;30.66
14902;BME280;7542;49.078;9.194;2024-01-06T02:43:23;97501.38;;;29.17;30.96
14902;BME280;7542;49.078;9.194;2024-01-06T02:44:25;97488.22;;;29.15;30.65
14902;BME280;7542;49.078;9.194;2024-01-06T02:45:27;97488.06;;;29.12;30.94
14902;BME280;7542;49.078;9.194;2024-01-06T02:46:29;97492.34;;;29.13;31.07
14902;BME280;7542;49.078;9.194;2024-01-06T02:47:31;97498.88;;;29.12;31.13
14902;BME280;7542;49.078;9.194;2024-01-06T02:48:34;97493.78;;;29.10;30.67
14902;BME280;7542;49.078;9.194;2024-01-06T02:49:36;97497.88;;;29.08;30.91
14902;BME280;7542;49.078;9.194;2024-01-06T02:50:38;97493.59;;;29.07;30.84
14902;BME280;7542;49.078;9.194;2024-01-06T02:51:40;97492.34;;;29.04;31.01
14902;BME280;7542;49.078;9.194;2024-01-06T02:52:42;97493.78;;;29.02;30.81
14902;BME280;7542;49.078;9.194;2024-01-06T02:53:44;97492.97;;;29.01;31.12
14902;BME280;7542;49.078;9.194;2024-01-06T02:54:46;97497.25;;;29.02;31.02
14902;BME280;7542;49.078;9.194;2024-01-06T02:55:48;97492.50;;;28.99;31.04
14902;BME280;7542;49.078;9.194;2024-01-06T02:56:50;97490.91;;;28.98;31.16
14902;BME280;7542;49.078;9.194;2024-01-06T02:57:52;97502.78;;;28.97;30.99
14902;BME280;7542;49.078;9.194;2024-01-06T02:58:54;97498.03;;;28.94;30.89
14902;BME280;7542;49.078;9.194;2024-01-06T02:59:56;97498.84;;;28.95;31.00
14902;BME280;7542;49.078;9.194;2024-01-06T03:00:58;97500.59;;;28.91;30.87
14902;BME280;7542;49.078;9.194;2024-01-06T03:02:01;97501.38;;;28.91;31.27
14902;BME280;7542;49.078;9.194;2024-01-06T03:03:04;97498.22;;;28.89;30.83
14902;BME280;7542;49.078;9.194;2024-01-06T03:04:06;97499.00;;;28.90;31.29
14902;BME280;7542;49.078;9.194;2024-01-06T03:05:09;97502.00;;;28.88;30.86
14902;BME280;7542;49.078;9.194;2024-01-06T03:06:12;97498.78;;;28.86;31.09
14902;BME280;7542;49.078;9.194;2024-01-06T03:07:14;97498.00;;;28.85;31.03
14902;BME280;7542;49.078;9.194;2024-01-06T03:08:16;97502.91;;;28.83;31.39
14902;BME280;7542;49.078;9.194;2024-01-06T03:09:18;97501.31;;;28.82;31.31
14902;BME280;7542;49.078;9.194;2024-01-06T03:10:21;97505.94;;;28.82;31.25
14902;BME280;7542;49.078;9.194;2024-01-06T03:11:23;97509.75;;;28.81;31.26
14902;BME280;7542;49.078;9.194;2024-01-06T03:12:25;97510.06;;;28.79;31.31
14902;BME280;7542;49.078;9.194;2024-01-06T03:13:27;97505.47;;;28.80;30.90
14902;BME280;7542;49.078;9.194;2024-01-06T03:14:29;97510.06;;;28.79;31.14
14902;BME280;7542;49.078;9.194;2024-01-06T03:15:31;97500.97;;;28.75;31.34
14902;BME280;7542;49.078;9.194;2024-01-06T03:16:33;97504.00;;;28.74;31.28
14902;BME280;7542;49.078;9.194;2024-01-06T03:17:36;97499.41;;;28.74;31.39
14902;BME280;7542;49.078;9.194;2024-01-06T03:18:38;97499.72;;;28.73;31.30
14902;BME280;7542;49.078;9.194;2024-01-06T03:19:40;97510.03;;;28.71;31.22
14902;BME280;7542;49.078;9.194;2024-01-06T03:20:42;97506.53;;;28.70;31.08
14902;BME280;7542;49.078;9.194;2024-01-06T03:21:44;97507.97;;;28.68;31.14
14902;BME280;7542;49.078;9.194;2024-01-06T03:22:46;97510.66;;;28.68;31.23
14902;BME280;7542;49.078;9.194;2024-01-06T03:23:48;97505.88;;;28.65;30.88
14902;BME280;7542;49.078;9.194;2024-01-06T03:24:50;97509.69;;;28.64;31.05
14902;BME280;7542;49.078;9.194;2024-01-06T03:25:52;97505.09;;;28.64;31.03
14902;BME280;7542;49.078;9.194;2024-01-06T03:26:54;97503.50;;;28.63;31.40
14902;BME280;7542;49.078;9.194;2024-01-06T03:27:56;97503.81;;;28.62;31.46
14902;BME280;7542;49.078;9.194;2024-01-06T03:28:59;97503.03;;;28.61;31.07
14902;BME280;7542;49.078;9.194;2024-01-06T03:30:01;97505.25;;;28.59;31.48
14902;BME280;7542;49.078;9.194;2024-01-06T03:31:03;97501.75;;;28.58;31.37
14902;BME280;7542;49.078;9.194;2024-01-06T03:32:06;97502.38;;;28.55;31.38
14902;BME280;7542;49.078;9.194;2024-01-06T03:33:08;97497.78;;;28.56;31.08
14902;BME280;7542;49.078;9.194;2024-01-06T03:34:10;97506.66;;;28.56;31.45
14902;BME280;7542;49.078;9.194;2024-01-06T03:35:15;97505.38;;;28.54;31.49
14902;BME280;7542;49.078;9.194;2024-01-06T03:36:17;97515.38;;;28.53;31.22
14902;BME280;7542;49.078;9.194;2024-01-06T03:37:19;97516.47;;;28.52;31.27
14902;BME280;7542;49.078;9.194;2024-01-06T03:38:21;97511.41;;;28.51;31.06
14902;BME280;7542;49.078;9.194;2024-01-06T03:39:23;97516.00;;;28.50;31.11
14902;BME280;7542;49.078;9.194;2024-01-06T03:40:25;97509.81;;;28.50;31.42
14902;BME280;7542;49.078;9.194;2024-01-06T03:41:27;97504.75;;;28.48;31.13
14902;BME280;7542;49.078;9.194;2024-01-06T03:42:29;97508.22;;;28.49;31.39
14902;BME280;7542;49.078;9.194;2024-01-06T03:43:31;97506.63;;;28.48;31.44
14902;BME280;7542;49.078;9.194;2024-01-06T03:44:34;97510.44;;;28.47;31.38
14902;BME280;7542;49.078;9.194;2024-01-06T03:45:36;97508.84;;;28.46;31.12
14902;BME280;7542;49.078;9.194;2024-01-06T03:46:38;97502.97;;;28.44;31.23
14902;BME280;7542;49.078;9.194;2024-01-06T03:47:40;97508.66;;;28.42;31.57
14902;BME280;7542;49.078;9.194;2024-01-06T03:48:42;97506.75;;;28.43;31.29
14902;BME280;7542;49.078;9.194;2024-01-06T03:49:45;97507.88;;;28.42;31.12
14902;BME280;7542;49.078;9.194;2024-01-06T03:50:47;97502.00;;;28.40;31.27
14902;BME280;7542;49.078;9.194;2024-01-06T03:51:49;97507.72;;;28.38;31.27
14902;BME280;7542;49.078;9.194;2024-01-06T03:52:51;97508.50;;;28.39;31.09
14902;BME280;7542;49.078;9.194;2024-01-06T03:53:53;97513.09;;;28.38;31.22
14902;BME280;7542;49.078;9.194;2024-01-06T03:54:54;97510.41;;;28.38;31.28
14902;BME280;7542;49.078;9.194;2024-01-06T03:55:57;97505.16;;;28.33;31.47
14902;BME280;7542;49.078;9.194;2024-01-06T03:56:59;97510.56;;;28.33;31.25
14902;BME280;7542;49.078;9.194;2024-01-06T03:58:01;97510.56;;;28.33;31.41
14902;BME280;7542;49.078;9.194;2024-01-06T03:59:03;97508.94;;;28.32;31.31
14902;BME280;7542;49.078;9.194;2024-01-06T04:00:06;97508.94;;;28.32;31.12
14902;BME280;7542;49.078;9.194;2024-01-06T04:01:10;97514.34;;;28.32;31.11
14902;BME280;7542;49.078;9.194;2024-01-06T04:02:12;97510.06;;;28.31;31.41
14902;BME280;7542;49.078;9.194;2024-01-06T04:03:14;97511.16;;;28.30;31.32
14902;BME280;7542;49.078;9.194;2024-01-06T04:04:16;97515.75;;;28.29;31.27
14902;BME280;7542;49.078;9.194;2024-01-06T04:05:18;97511.47;;;28.28;31.55
14902;BME280;7542;49.078;9.194;2024-01-06T04:06:20;97514.16;;;28.28;31.51
14902;BME280;7542;49.078;9.194;2024-01-06T04:07:22;97511.75;;;28.27;31.17
14902;BME280;7542;49.078;9.194;2024-01-06T04:08:24;97513.66;;;28.26;31.34
14902;BME280;7542;49.078;9.194;2024-01-06T04:09:25;97512.88;;;28.26;31.32
14902;BME280;7542;49.078;9.194;2024-01-06T04:10:27;97520.16;;;28.25;31.30
14902;BME280;7542;49.078;9.194;2024-01-06T04:11:29;97518.25;;;28.26;31.21
14902;BME280;7542;49.078;9.194;2024-01-06T04:12:32;97519.69;;;28.23;31.27
14902;BME280;7542;49.078;9.194;2024-01-06T04:13:34;97517.00;;;28.23;31.48
14902;BME280;7542;49.078;9.194;2024-01-06T04:14:36;97520.78;;;28.22;31.30
14902;BME280;7542;49.078;9.194;2024-01-06T04:15:38;97516.19;;;28.23;31.46
14902;BME280;7542;49.078;9.194;2024-01-06T04:16:40;97518.38;;;28.21;31.35
14902;BME280;7542;49.078;9.194;2024-01-06T04:17:41;97512.19;;;28.20;31.42
14902;BME280;7542;49.078;9.194;2024-01-06T04:18:44;97511.41;;;28.20;31.45
14902;BME280;7542;49.078;9.194;2024-01-06T04:19:46;97513.78;;;28.21;31.28
14902;BME280;7542;49.078;9.194;2024-01-06T04:20:48;97519.50;;;28.20;31.36
14902;BME280;7542;49.078;9.194;2024-01-06T04:21:50;97519.00;;;28.18;31.40
14902;BME280;7542;49.078;9.194;2024-01-06T04:22:53;97523.91;;;28.16;31.41
14902;BME280;7542;49.078;9.194;2024-01-06T04:23:54;97516.63;;;28.16;31.25
14902;BME280;7542;49.078;9.194;2024-01-06T04:24:57;97518.84;;;28.14;31.29
14902;BME280;7542;49.078;9.194;2024-01-06T04:26:00;97524.22;;;28.14;31.39
14902;BME280;7542;49.078;9.194;2024-01-06T04:27:02;97518.06;;;28.14;31.56
14902;BME280;7542;49.078;9.194;2024-01-06T04:28:04;97522.97;;;28.12;31.54
14902;BME280;7542;49.078;9.194;2024-01-06T04:29:06;97525.66;;;28.12;31.42
14902;BME280;7542;49.078;9.194;2024-01-06T04:30:09;97520.28;;;28.12;31.36
14902;BME280;7542;49.078;9.194;2024-01-06T04:31:11;97521.34;;;28.11;31.39
14902;BME280;7542;49.078;9.194;2024-01-06T04:32:13;97525.47;;;28.08;31.50
14902;BME280;7542;49.078;9.194;2024-01-06T04:33:15;97520.56;;;28.10;31.33
14902;BME280;7542;49.078;9.194;2024-01-06T04:34:17;97516.28;;;28.09;31.48
14902;BME280;7542;49.078;9.194;2024-01-06T04:35:20;97517.69;;;28.07;31.29
14902;BME280;7542;49.078;9.194;2024-01-06T04:36:23;97520.06;;;28.08;31.48
14902;BME280;7542;49.078;9.194;2024-01-06T04:37:25;97527.34;;;28.08;31.31
14902;BME280;7542;49.078;9.194;2024-01-06T04:38:27;97523.88;;;28.07;31.49
14902;BME280;7542;49.078;9.194;2024-01-06T04:39:29;97525.78;;;28.07;31.35
14902;BME280;7542;49.078;9.194;2024-01-06T04:40:31;97528.78;;;28.05;31.42
14902;BME280;7542;49.078;9.194;2024-01-06T04:41:33;97527.66;;;28.06;31.49
14902;BME280;7542;49.078;9.194;2024-01-06T04:42:35;97527.19;;;28.04;31.31
14902;BME280;7542;49.078;9.194;2024-01-06T04:43:37;97521.63;;;28.00;31.25
14902;BME280;7542;49.078;9.194;2024-01-06T04:44:39;97532.41;;;28.00;31.47
14902;BME280;7542;49.078;9.194;2024-01-06T04:45:40;97526.72;;;28.02;31.41
14902;BME280;7542;49.078;9.194;2024-01-06T04:46:42;97531.31;;;28.01;31.40
14902;BME280;7542;49.078;9.194;2024-01-06T04:47:45;97523.50;;;28.00;31.22
14902;BME280;7542;49.078;9.194;2024-01-06T04:48:47;97525.91;;;28.01;31.21
14902;BME280;7542;49.078;9.194;2024-01-06T04:49:49;97525.41;;;27.99;31.30
14902;BME280;7542;49.078;9.194;2024-01-06T04:50:51;97528.91;;;28.00;31.30
14902;BME280;7542;49.078;9.194;2024-01-06T04:51:53;97528.09;;;27.99;31.61
14902;BME280;7542;49.078;9.194;2024-01-06T04:52:55;97527.31;;;27.99;31.43
14902;BME280;7542;49.078;9.194;2024-01-06T04:53:57;97526.50;;;27.98;31.43
14902;BME280;7542;49.078;9.194;2024-01-06T04:54:59;97531.09;;;27.98;31.53
14902;BME280;7542;49.078;9.194;2024-01-06T04:56:01;97530.31;;;27.97;31.31
14902;BME280;7542;49.078;9.194;2024-01-06T04:57:03;97522.06;;;27.94;31.50
14902;BME280;7542;49.078;9.194;2024-01-06T04:58:06;97526.81;;;27.97;31.28
14902;BME280;7542;49.078;9.194;2024-01-06T04:59:07;97527.94;;;27.96;31.38
14902;BME280;7542;49.078;9.194;2024-01-06T05:00:10;97528.25;;;27.94;31.36
14902;BME280;7542;49.078;9.194;2024-01-06T05:01:12;97520.16;;;27.94;31.34
14902;BME280;7542;49.078;9.194;2024-01-06T05:02:15;97527.13;;;27.95;31.37
14902;BME280;7542;49.078;9.194;2024-01-06T05:03:17;97523.97;;;27.93;31.41
14902;BME280;7542;49.078;9.194;2024-01-06T05:04:20;97520.47;;;27.93;31.42
14902;BME280;7542;49.078;9.194;2024-01-06T05:05:22;97531.25;;;27.93;31.25
14902;BME280;7542;49.078;9.194;2024-01-06T05:06:24;97533.47;;;27.91;31.49
14902;BME280;7542;49.078;9.194;2024-01-06T05:07:26;97527.56;;;27.89;31.32
14902;BME280;7542;49.078;9.194;2024-01-06T05:08:28;97535.38;;;27.90;31.34
14902;BME280;7542;49.078;9.194;2024-01-06T05:09:32;97532.94;;;27.89;31.35
14902;BME280;7542;49.078;9.194;2024-01-06T05:10:34;97535.97;;;27.87;31.22
14902;BME280;7542;49.078;9.194;2024-01-06T05:11:36;97539.44;;;27.88;31.26
14902;BME280;7542;49.078;9.194;2024-01-06T05:12:38;97537.53;;;27.88;31.42
14902;BME280;7542;49.078;9.194;2024-01-06T05:13:40;97545.16;;;27.86;31.30
14902;BME280;7542;49.078;9.194;2024-01-06T05:14:42;97545.94;;;27.87;31.38
14902;BME280;7542;49.078;9.194;2024-01-06T05:15:44;97550.84;;;27.85;31.34
14902;BME280;7542;49.078;9.194;2024-01-06T05:16:46;97552.75;;;27.84;31.44
14902;BME280;7542;49.078;9.194;2024-01-06T05:17:48;97550.06;;;27.84;31.38
14902;BME280;7542;49.078;9.194;2024-01-06T05:18:50;97550.38;;;27.83;31.15
14902;BME280;7542;49.078;9.194;2024-01-06T05:19:52;97558.75;;;27.81;31.39
14902;BME280;7542;49.078;9.194;2024-01-06T05:20:55;97554.47;;;27.80;31.78
14902;BME280;7542;49.078;9.194;2024-01-06T05:21:58;97547.97;;;27.81;31.44
14902;BME280;7542;49.078;9.194;2024-01-06T05:23:00;97551.78;;;27.80;31.47
14902;BME280;7542;49.078;9.194;2024-01-06T05:24:02;97547.19;;;27.81;31.37
14902;BME280;7542;49.078;9.194;2024-01-06T05:25:05;97557.66;;;27.82;31.30
14902;BME280;7542;49.078;9.194;2024-01-06T05:26:06;97555.56;;;27.79;31.36
14902;BME280;7542;49.078;9.194;2024-01-06T05:27:08;97555.84;;;27.78;31.42
14902;BME280;7542;49.078;9.194;2024-01-06T05:28:14;97545.22;;;27.72;31.44
14902;BME280;7542;49.078;9.194;2024-01-06T05:29:16;97552.38;;;27.77;31.39
14902;BME280;7542;49.078;9.194;2024-01-06T05:30:18;97553.47;;;27.76;31.34
14902;BME280;7542;49.078;9.194;2024-01-06T05:31:20;97551.88;;;27.75;31.40
14902;BME280;7542;49.078;9.194;2024-01-06T05:32:22;97547.44;;;27.70;31.44
14902;BME280;7542;49.078;9.194;2024-01-06T05:33:24;97552.19;;;27.73;31.45